createdAt,value
2023-04-10T00:02:03.849Z,100038.60
2023-04-10T00:04:40.534Z,100037.60
2023-04-10T00:07:11.644Z,100035.39
2023-04-10T00:09:39.553Z,100040.91
2023-04-10T00:12:11.236Z,100041.42
2023-04-10T00:14:41.813Z,100045.71
2023-04-10T00:17:10.467Z,100048.46
2023-04-10T00:19:38.505Z,100049.31
2023-04-10T00:22:07.542Z,100050.67
2023-04-10T00:24:39.905Z,100048.20
2023-04-10T00:27:13.897Z,100048.30
2023-04-10T00:29:41.711Z,100045.00
2023-04-10T00:32:25.371Z,100049.95
2023-04-10T00:34:55.463Z,100044.08
2023-04-10T00:37:23.847Z,100046.48
2023-04-10T00:39:51.735Z,100045.23
2023-04-10T00:42:20.864Z,100047.25
2023-04-10T00:44:49.025Z,100049.42
2023-04-10T00:47:16.930Z,100043.88
2023-04-10T00:49:45.397Z,100045.39
2023-04-10T00:52:13.308Z,100043.17
2023-04-10T00:54:46.686Z,100042.33
2023-04-10T00:57:15.030Z,100040.45
2023-04-10T00:59:43.662Z,100034.98
2023-04-10T01:02:13.577Z,100035.98
2023-04-10T01:04:42.451Z,100034.56
2023-04-10T01:07:15.195Z,100031.65
2023-04-10T01:10:10.804Z,100029.80
2023-04-10T01:13:05.941Z,100031.43
2023-04-10T01:15:41.250Z,100031.61
2023-04-10T01:18:26.975Z,100034.88
2023-04-10T01:20:54.827Z,100039.04
2023-04-10T01:23:32.827Z,100036.80
2023-04-10T01:26:04.500Z,100040.56
2023-04-10T01:29:09.668Z,100038.32
2023-04-10T01:31:39.150Z,100037.64
2023-04-10T01:34:22.045Z,100036.52
2023-04-10T01:36:52.169Z,100036.68
2023-04-10T01:39:21.100Z,100035.96
2023-04-10T01:41:51.289Z,100033.56
2023-04-10T01:44:21.858Z,100038.41
2023-04-10T01:46:49.832Z,100033.48
2023-04-10T01:49:17.876Z,100032.85
2023-04-10T01:51:46.537Z,100034.27
2023-04-10T01:54:14.677Z,100030.77
2023-04-10T01:56:43.693Z,100033.33
2023-04-10T01:59:13.175Z,100032.12
2023-04-10T02:01:41.518Z,100036.55
2023-04-10T02:04:09.907Z,100035.95
2023-04-10T02:06:42.114Z,100033.29
2023-04-10T02:09:31.385Z,100032.94
2023-04-10T02:12:04.630Z,100037.80
2023-04-10T02:14:37.149Z,100037.63
2023-04-10T02:17:05.193Z,100038.66
2023-04-10T02:19:33.119Z,100034.52
2023-04-10T02:22:01.000Z,100036.02
2023-04-10T02:24:30.180Z,100035.32
2023-04-10T02:26:58.153Z,100039.07
2023-04-10T02:29:29.455Z,100035.75
2023-04-10T02:31:57.629Z,100038.34
2023-04-10T02:34:26.079Z,100043.30
2023-04-10T02:36:58.090Z,100041.77
2023-04-10T02:39:26.886Z,100036.79
2023-04-10T02:41:54.782Z,100041.80
2023-04-10T02:44:22.670Z,100041.13
2023-04-10T02:46:50.776Z,100043.67
2023-04-10T02:49:18.798Z,100044.66
2023-04-10T02:51:46.712Z,100044.59
2023-04-10T02:54:15.504Z,100042.16
2023-04-10T02:56:43.740Z,100041.65
2023-04-10T02:59:13.431Z,100043.08
2023-04-10T03:01:42.207Z,100043.14
2023-04-10T03:04:10.621Z,100042.13
2023-04-10T03:06:40.880Z,100044.87
2023-04-10T03:09:08.890Z,100044.02
2023-04-10T03:11:36.865Z,100045.16
2023-04-10T03:14:12.530Z,100046.83
2023-04-10T03:16:43.971Z,100049.71
2023-04-10T03:19:12.803Z,100050.73
2023-04-10T03:21:40.765Z,100049.19
2023-04-10T03:24:08.842Z,100050.69
2023-04-10T03:26:36.841Z,100050.85
2023-04-10T03:29:05.522Z,100045.05
2023-04-10T03:31:35.422Z,100043.91
2023-04-10T03:34:03.365Z,100047.39
2023-04-10T03:36:32.431Z,100045.58
2023-04-10T03:39:00.708Z,100048.00
2023-04-10T03:41:29.671Z,100048.84
2023-04-10T03:43:58.064Z,100050.37
2023-04-10T03:46:26.168Z,100052.59
2023-04-10T03:48:54.708Z,100055.33
2023-04-10T03:51:24.710Z,100055.52
2023-04-10T03:53:53.481Z,100056.75
2023-04-10T03:56:22.640Z,100057.27
2023-04-10T03:58:54.995Z,100059.50
2023-04-10T04:01:23.404Z,100060.54
2023-04-10T04:03:57.365Z,100064.83
2023-04-10T04:06:44.212Z,100065.52
2023-04-10T04:09:32.889Z,100070.35
2023-04-10T04:12:17.682Z,100074.10
2023-04-10T04:15:10.058Z,100075.81
2023-04-10T04:17:54.270Z,100072.23
2023-04-10T04:20:41.388Z,100076.35
2023-04-10T04:23:40.047Z,100079.36
2023-04-10T04:26:27.107Z,100077.66
2023-04-10T04:29:24.164Z,100080.95
2023-04-10T04:32:06.134Z,100083.36
2023-04-10T04:34:54.311Z,100081.12
2023-04-10T04:37:40.856Z,100089.22
2023-04-10T04:40:26.700Z,100087.84
2023-04-10T04:43:18.562Z,100086.81
2023-04-10T04:46:00.027Z,100088.16
2023-04-10T04:48:49.873Z,100088.65
2023-04-10T04:51:46.946Z,100093.25
2023-04-10T04:54:37.887Z,100092.72
2023-04-10T04:57:17.759Z,100093.80
2023-04-10T05:00:07.062Z,100096.30
2023-04-10T05:02:56.146Z,100099.90
2023-04-10T05:05:56.920Z,100102.82
2023-04-10T05:08:43.737Z,100104.85
2023-04-10T05:11:30.762Z,100111.70
2023-04-10T05:14:17.900Z,100114.11
2023-04-10T05:17:11.646Z,100114.15
2023-04-10T05:19:45.734Z,100112.13
2023-04-10T05:22:32.539Z,100116.98
2023-04-10T05:25:19.610Z,100113.79
2023-04-10T05:28:04.764Z,100116.23
2023-04-10T05:30:51.083Z,100115.45
2023-04-10T05:33:37.971Z,100115.81
2023-04-10T05:36:13.560Z,100113.06
2023-04-10T05:39:17.312Z,100113.91
2023-04-10T05:42:00.118Z,100113.68
2023-04-10T05:44:44.732Z,100114.99
2023-04-10T05:47:31.813Z,100119.77
2023-04-10T05:50:26.374Z,100123.57
2023-04-10T05:53:13.234Z,100124.77
2023-04-10T05:56:03.159Z,100128.16
2023-04-10T05:58:47.314Z,100129.31
2023-04-10T06:01:15.469Z,100128.41
2023-04-10T06:03:50.910Z,100131.47
2023-04-10T06:06:20.823Z,100136.47
2023-04-10T06:08:50.074Z,100136.64
2023-04-10T06:11:18.337Z,100134.88
2023-04-10T06:13:49.874Z,100140.17
2023-04-10T06:16:19.306Z,100141.76
2023-04-10T06:18:48.183Z,100144.52
2023-04-10T06:21:16.073Z,100144.00
2023-04-10T06:23:44.256Z,100143.65
2023-04-10T06:26:12.767Z,100145.05
2023-04-10T06:28:41.246Z,100148.54
2023-04-10T06:31:09.272Z,100146.48
2023-04-10T06:33:38.513Z,100145.13
2023-04-10T06:36:08.800Z,100147.19
2023-04-10T06:38:42.095Z,100147.08
2023-04-10T06:41:10.455Z,100149.51
2023-04-10T06:43:41.225Z,100146.45
2023-04-10T06:46:09.241Z,100149.23
2023-04-10T06:48:37.109Z,100151.00
2023-04-10T06:51:07.589Z,100154.30
2023-04-10T06:53:35.819Z,100150.85
2023-04-10T06:56:07.436Z,100150.50
2023-04-10T06:58:47.922Z,100152.73
2023-04-10T07:01:17.876Z,100155.48
2023-04-10T07:03:46.101Z,100159.44
2023-04-10T07:06:21.809Z,100155.97
2023-04-10T07:08:55.749Z,100158.20
2023-04-10T07:11:23.752Z,100159.05
2023-04-10T07:13:53.899Z,100158.37
2023-04-10T07:16:25.992Z,100161.78
2023-04-10T07:18:54.267Z,100162.48
2023-04-10T07:21:22.321Z,100162.33
2023-04-10T07:23:57.071Z,100162.55
2023-04-10T07:26:26.049Z,100162.88
2023-04-10T07:28:54.417Z,100163.88
2023-04-10T07:31:24.016Z,100165.58
2023-04-10T07:33:51.980Z,100167.11
2023-04-10T07:36:19.974Z,100169.67
2023-04-10T07:38:49.951Z,100172.23
2023-04-10T07:41:17.848Z,100177.16
2023-04-10T07:43:51.173Z,100179.70
2023-04-10T07:46:19.370Z,100177.64
2023-04-10T07:48:47.700Z,100177.67
2023-04-10T07:51:16.435Z,100177.15
2023-04-10T07:53:44.783Z,100179.71
2023-04-10T07:56:19.367Z,100180.35
2023-04-10T07:58:48.946Z,100183.75
2023-04-10T08:01:16.893Z,100184.09
2023-04-10T08:03:52.737Z,100184.59
2023-04-10T08:06:21.246Z,100182.82
2023-04-10T08:08:49.215Z,100185.07
2023-04-10T08:11:27.474Z,100184.56
2023-04-10T08:13:56.814Z,100182.45
2023-04-10T08:16:25.821Z,100184.14
2023-04-10T08:18:54.791Z,100181.20
2023-04-10T08:21:23.998Z,100186.42
2023-04-10T08:23:52.747Z,100187.36
2023-04-10T08:26:21.448Z,100186.08
2023-04-10T08:28:50.888Z,100190.09
2023-04-10T08:31:19.953Z,100187.58
2023-04-10T08:33:48.355Z,100188.13
2023-04-10T08:36:20.513Z,100187.38
2023-04-10T08:38:49.602Z,100186.98
2023-04-10T08:41:18.244Z,100194.35
2023-04-10T08:43:49.696Z,100191.08
2023-04-10T08:46:17.933Z,100191.63
2023-04-10T08:49:03.869Z,100189.06
2023-04-10T08:51:43.077Z,100191.80
2023-04-10T08:54:15.389Z,100191.30
2023-04-10T08:56:43.246Z,100190.67
2023-04-10T08:59:11.373Z,100188.17
2023-04-10T09:01:40.730Z,100186.55
2023-04-10T09:04:11.749Z,100185.11
2023-04-10T09:06:40.100Z,100188.84
2023-04-10T09:09:10.396Z,100193.05
2023-04-10T09:11:57.059Z,100193.13
2023-04-10T09:14:26.671Z,100190.35
2023-04-10T09:17:20.822Z,100191.67
2023-04-10T09:19:53.933Z,100189.14
2023-04-10T09:22:33.116Z,100188.89
2023-04-10T09:25:08.113Z,100189.02
2023-04-10T09:27:37.515Z,100189.92
2023-04-10T09:30:06.811Z,100188.45
2023-04-10T09:32:43.954Z,100188.53
2023-04-10T09:35:14.934Z,100187.83
2023-04-10T09:37:48.372Z,100189.08
2023-04-10T09:40:23.076Z,100186.47
2023-04-10T09:42:51.596Z,100190.77
2023-04-10T09:45:20.932Z,100190.33
2023-04-10T09:48:06.155Z,100187.43
2023-04-10T09:50:38.685Z,100180.58
2023-04-10T09:53:17.102Z,100178.26
2023-04-10T09:55:47.971Z,100176.41
2023-04-10T09:58:17.004Z,100180.57
2023-04-10T10:00:47.075Z,100174.91
2023-04-10T10:03:18.124Z,100176.27
2023-04-10T10:05:51.048Z,100177.48
2023-04-10T10:08:26.170Z,100178.55
2023-04-10T10:10:55.952Z,100175.36
2023-04-10T10:13:25.027Z,100170.45
2023-04-10T10:16:00.358Z,100167.79
2023-04-10T10:18:45.445Z,100163.55
2023-04-10T10:21:13.875Z,100163.13
2023-04-10T10:23:45.440Z,100167.10
2023-04-10T10:26:13.972Z,100167.52
2023-04-10T10:28:42.305Z,100168.05
2023-04-10T10:31:12.609Z,100164.64
2023-04-10T10:33:41.242Z,100164.33
2023-04-10T10:36:09.170Z,100158.88
2023-04-10T10:38:39.779Z,100157.02
2023-04-10T10:41:15.499Z,100161.48
2023-04-10T10:44:02.689Z,100163.67
2023-04-10T10:46:33.836Z,100160.42
2023-04-10T10:49:02.449Z,100155.98
2023-04-10T10:51:51.010Z,100154.61
2023-04-10T10:54:32.287Z,100159.84
2023-04-10T10:57:09.282Z,100156.47
2023-04-10T10:59:43.557Z,100160.73
2023-04-10T11:02:17.510Z,100161.24
2023-04-10T11:04:46.491Z,100160.05
2023-04-10T11:07:15.050Z,100155.98
2023-04-10T11:09:53.197Z,100159.54
2023-04-10T11:12:23.349Z,100152.58
2023-04-10T11:15:01.603Z,100147.88
2023-04-10T11:17:52.749Z,100148.16
2023-04-10T11:20:22.353Z,100146.39
2023-04-10T11:23:20.395Z,100141.77
2023-04-10T11:25:50.326Z,100142.49
2023-04-10T11:28:47.800Z,100144.08
2023-04-10T11:31:23.089Z,100142.88
2023-04-10T11:33:58.645Z,100139.77
2023-04-10T11:36:27.622Z,100145.29
2023-04-10T11:39:05.993Z,100143.21
2023-04-10T11:41:37.436Z,100144.23
2023-04-10T11:44:16.365Z,100148.55
2023-04-10T11:46:47.409Z,100149.17
2023-04-10T11:49:21.112Z,100150.31
2023-04-10T11:51:50.010Z,100145.41
2023-04-10T11:54:19.837Z,100151.20
2023-04-10T11:57:01.641Z,100148.90
2023-04-10T11:59:31.188Z,100148.98
2023-04-10T12:02:10.518Z,100147.55
2023-04-10T12:04:40.306Z,100150.96
2023-04-10T12:07:09.520Z,100159.02
2023-04-10T12:09:37.650Z,100157.48
2023-04-10T12:12:12.621Z,100159.88
2023-04-10T12:14:42.281Z,100159.25
2023-04-10T12:17:11.602Z,100158.63
2023-04-10T12:19:53.418Z,100151.34
2023-04-10T12:22:21.952Z,100155.09
2023-04-10T12:24:53.405Z,100147.67
2023-04-10T12:27:23.231Z,100144.40
2023-04-10T12:29:52.379Z,100145.46
2023-04-10T12:32:20.731Z,100149.10
2023-04-10T12:34:59.150Z,100144.25
2023-04-10T12:37:52.318Z,100143.64
2023-04-10T12:40:20.987Z,100143.05
2023-04-10T12:42:49.223Z,100145.25
2023-04-10T12:45:17.290Z,100141.40
2023-04-10T12:47:51.848Z,100135.04
2023-04-10T12:50:28.764Z,100130.10
2023-04-10T12:53:04.992Z,100122.85
2023-04-10T12:55:33.281Z,100127.42
2023-04-10T12:58:17.372Z,100132.27
2023-04-10T13:00:45.705Z,100138.34
2023-04-10T13:03:14.203Z,100140.29
2023-04-10T13:05:42.461Z,100140.46
2023-04-10T13:08:10.770Z,100140.94
2023-04-10T13:10:38.866Z,100141.23
2023-04-10T13:13:08.110Z,100135.83
2023-04-10T13:15:36.792Z,100130.37
2023-04-10T13:18:07.112Z,100127.81
2023-04-10T13:20:36.243Z,100114.15
2023-04-10T13:23:04.557Z,100101.88
2023-04-10T13:25:39.833Z,100094.27
2023-04-10T13:28:15.992Z,100086.05
2023-04-10T13:30:44.339Z,100088.90
2023-04-10T13:33:13.417Z,100089.05
2023-04-10T13:35:43.154Z,100083.15
2023-04-10T13:38:12.001Z,100085.54
2023-04-10T13:40:43.747Z,100083.23
2023-04-10T13:43:13.456Z,100084.86
2023-04-10T13:45:41.465Z,100080.11
2023-04-10T13:48:09.504Z,100075.14
2023-04-10T13:50:37.629Z,100081.86
2023-04-10T13:53:09.244Z,100079.48
2023-04-10T13:55:38.861Z,100081.77
2023-04-10T13:58:07.196Z,100080.47
2023-04-10T14:00:35.327Z,100079.55
2023-04-10T14:03:04.776Z,100083.18
2023-04-10T14:05:32.853Z,100081.30
2023-04-10T14:08:01.100Z,100082.57
2023-04-10T14:10:29.394Z,100081.80
2023-04-10T14:12:57.435Z,100077.04
2023-04-10T14:15:25.656Z,100072.46
2023-04-10T14:17:53.862Z,100068.21
2023-04-10T14:20:22.145Z,100065.70
2023-04-10T14:22:50.639Z,100064.88
2023-04-10T14:25:18.884Z,100060.27
2023-04-10T14:27:46.885Z,100058.42
2023-04-10T14:30:15.211Z,100058.80
2023-04-10T14:32:43.981Z,100052.98
2023-04-10T14:35:12.212Z,100049.77
2023-04-10T14:37:40.291Z,100053.60
2023-04-10T14:40:09.601Z,100053.42
2023-04-10T14:42:38.709Z,100047.92
2023-04-10T14:45:10.745Z,100045.52
2023-04-10T14:47:42.075Z,100046.90
2023-04-10T14:50:11.116Z,100047.77
2023-04-10T14:52:39.608Z,100043.66
2023-04-10T14:55:07.668Z,100041.42
2023-04-10T14:57:38.010Z,100036.94
2023-04-10T15:00:07.345Z,100037.82
2023-04-10T15:02:36.324Z,100037.81
2023-04-10T15:05:07.213Z,100034.73
2023-04-10T15:07:36.089Z,100032.32
2023-04-10T15:10:04.431Z,100033.01
2023-04-10T15:12:35.117Z,100029.05
2023-04-10T15:15:03.460Z,100027.68
2023-04-10T15:17:31.935Z,100028.38
2023-04-10T15:20:06.177Z,100025.48
2023-04-10T15:22:35.950Z,100019.80
2023-04-10T15:25:04.923Z,100016.34
2023-04-10T15:27:33.466Z,100016.88
2023-04-10T15:30:01.412Z,100014.98
2023-04-10T15:32:31.475Z,100013.59
2023-04-10T15:35:00.164Z,100012.90
2023-04-10T15:37:28.410Z,100005.81
2023-04-10T15:39:57.382Z,100008.58
2023-04-10T15:42:25.570Z,100006.16
2023-04-10T15:44:53.615Z,100006.66
2023-04-10T15:47:21.715Z,100007.53
2023-04-10T15:49:50.124Z,100006.48
2023-04-10T15:52:18.088Z,100001.65
2023-04-10T15:54:46.004Z,100002.17
2023-04-10T15:57:15.363Z,99997.17
2023-04-10T15:59:43.741Z,99994.20
2023-04-10T16:02:11.927Z,99996.43
2023-04-10T16:04:46.058Z,99991.42
2023-04-10T16:07:14.462Z,99992.10
2023-04-10T16:09:42.968Z,99991.23
2023-04-10T16:12:14.314Z,99987.95
2023-04-10T16:14:42.988Z,99990.70
2023-04-10T16:17:11.075Z,99988.27
2023-04-10T16:19:55.106Z,99989.97
2023-04-10T16:22:31.390Z,99989.06
2023-04-10T16:24:59.715Z,99993.00
2023-04-10T16:27:27.717Z,99994.86
2023-04-10T16:29:55.742Z,99991.74
2023-04-10T16:32:23.793Z,99994.29
2023-04-10T16:34:51.767Z,99994.09
2023-04-10T16:37:19.934Z,99989.41
2023-04-10T16:39:56.244Z,99990.94
2023-04-10T16:42:24.798Z,99991.95
2023-04-10T16:44:52.810Z,99994.50
2023-04-10T16:47:21.301Z,99990.48
2023-04-10T16:49:49.837Z,99990.44
2023-04-10T16:52:19.771Z,99985.39
2023-04-10T16:54:48.381Z,99989.30
2023-04-10T16:57:16.243Z,99987.38
2023-04-10T16:59:47.130Z,99985.93
2023-04-10T17:02:15.496Z,99987.08
2023-04-10T17:04:43.524Z,99991.13
2023-04-10T17:07:11.480Z,99992.24
2023-04-10T17:09:40.392Z,99996.13
2023-04-10T17:12:08.386Z,100000.89
2023-04-10T17:14:44.021Z,99997.41
2023-04-10T17:17:12.032Z,99997.55
2023-04-10T17:19:40.506Z,99999.71
2023-04-10T17:22:16.099Z,100003.09
2023-04-10T17:24:44.056Z,100004.23
2023-04-10T17:27:12.109Z,100008.45
2023-04-10T17:29:40.139Z,100006.66
2023-04-10T17:32:08.719Z,100009.38
2023-04-10T17:34:37.058Z,100009.98
2023-04-10T17:37:05.878Z,100007.17
2023-04-10T17:39:34.091Z,100009.48
2023-04-10T17:42:02.062Z,100010.26
2023-04-10T17:44:30.032Z,100013.80
2023-04-10T17:46:58.216Z,100017.21
2023-04-10T17:49:26.260Z,100018.19
2023-04-10T17:51:54.179Z,100018.84
2023-04-10T17:54:21.986Z,100019.16
2023-04-10T17:56:52.312Z,100017.73
2023-04-10T17:59:25.793Z,100020.95
2023-04-10T18:01:53.792Z,100018.64
2023-04-10T18:04:21.852Z,100019.60
2023-04-10T18:06:49.973Z,100022.65
2023-04-10T18:09:17.949Z,100019.67
2023-04-10T18:11:47.931Z,100017.61
2023-04-10T18:14:17.536Z,100019.14
2023-04-10T18:16:45.617Z,100020.70
2023-04-10T18:19:13.615Z,100017.77
2023-04-10T18:21:44.027Z,100022.36
2023-04-10T18:24:12.197Z,100021.16
2023-04-10T18:26:40.507Z,100024.09
2023-04-10T18:29:08.451Z,100024.06
2023-04-10T18:31:36.576Z,100026.63
2023-04-10T18:34:08.327Z,100028.34
2023-04-10T18:36:37.198Z,100027.80
2023-04-10T18:39:05.545Z,100026.58
2023-04-10T18:41:35.240Z,100028.27
2023-04-10T18:44:05.768Z,100032.02
2023-04-10T18:46:38.911Z,100031.53
2023-04-10T18:49:07.969Z,100031.34
2023-04-10T18:51:36.601Z,100027.91
2023-04-10T18:54:06.208Z,100027.91
2023-04-10T18:56:35.749Z,100026.02
2023-04-10T18:59:10.252Z,100029.46
2023-04-10T19:01:39.930Z,100028.61
2023-04-10T19:04:08.294Z,100026.91
2023-04-10T19:06:41.144Z,100026.77
2023-04-10T19:09:09.497Z,100026.63
2023-04-10T19:11:37.874Z,100027.16
2023-04-10T19:14:06.321Z,100024.93
2023-04-10T19:16:35.879Z,100025.60
2023-04-10T19:19:03.899Z,100025.08
2023-04-10T19:21:32.064Z,100025.44
2023-04-10T19:24:00.396Z,100027.52
2023-04-10T19:26:28.865Z,100024.10
2023-04-10T19:28:57.142Z,100020.33
2023-04-10T19:31:45.410Z,100021.17
2023-04-10T19:34:14.834Z,100021.48
2023-04-10T19:36:43.494Z,100022.00
2023-04-10T19:39:11.329Z,100021.63
2023-04-10T19:41:42.476Z,100018.53
2023-04-10T19:44:10.638Z,100017.31
2023-04-10T19:46:45.648Z,100019.20
2023-04-10T19:49:13.631Z,100019.19
2023-04-10T19:51:41.468Z,100017.63
2023-04-10T19:54:09.705Z,100012.44
2023-04-10T19:56:38.082Z,100017.41
2023-04-10T19:59:08.350Z,100019.95
2023-04-10T20:01:36.847Z,100019.77
2023-04-10T20:04:04.958Z,100019.23
2023-04-10T20:06:33.068Z,100016.96
2023-04-10T20:09:01.900Z,100017.12
2023-04-10T20:11:30.776Z,100016.23
2023-04-10T20:13:58.764Z,100010.71
2023-04-10T20:16:27.164Z,100009.96
2023-04-10T20:18:55.474Z,100008.73
2023-04-10T20:21:23.460Z,100006.64
2023-04-10T20:23:54.483Z,100005.25
2023-04-10T20:26:23.415Z,100003.70
2023-04-10T20:28:52.862Z,100006.41
2023-04-10T20:31:21.586Z,100002.75
2023-04-10T20:33:49.585Z,100002.02
2023-04-10T20:36:17.844Z,100000.95
2023-04-10T20:38:46.243Z,100004.39
2023-04-10T20:41:14.124Z,100001.45
2023-04-10T20:43:42.470Z,100002.49
2023-04-10T20:46:10.695Z,99998.91
2023-04-10T20:48:38.781Z,99997.86
2023-04-10T20:51:09.116Z,99996.63
2023-04-10T20:53:37.034Z,99994.42
2023-04-10T20:56:06.337Z,99991.82
2023-04-10T20:58:34.624Z,99991.12
2023-04-10T21:01:08.712Z,99991.79
2023-04-10T21:03:37.278Z,99988.53
2023-04-10T21:06:05.728Z,99988.70
2023-04-10T21:08:34.094Z,99989.71
2023-04-10T21:11:02.140Z,99992.26
2023-04-10T21:13:30.442Z,99994.33
2023-04-10T21:15:58.484Z,99992.09
2023-04-10T21:18:27.339Z,99988.69
2023-04-10T21:20:59.426Z,99988.20
2023-04-10T21:23:27.362Z,99991.52
2023-04-10T21:25:55.291Z,99991.52
2023-04-10T21:28:23.210Z,99988.24
2023-04-10T21:30:51.417Z,99988.43
2023-04-10T21:33:20.237Z,99985.33
2023-04-10T21:35:49.279Z,99980.70
2023-04-10T21:38:17.215Z,99979.84
2023-04-10T21:40:53.575Z,99981.22
2023-04-10T21:43:22.790Z,99982.94
2023-04-10T21:45:50.986Z,99985.85
2023-04-10T21:48:21.213Z,99988.89
2023-04-10T21:50:49.592Z,99982.65
2023-04-10T21:53:17.472Z,99982.27
2023-04-10T21:55:45.518Z,99985.18
2023-04-10T21:58:13.354Z,99982.43
2023-04-10T22:00:42.593Z,99979.17
2023-04-10T22:03:11.233Z,99978.41
2023-04-10T22:05:46.041Z,99974.73
2023-04-10T22:08:15.092Z,99975.86
2023-04-10T22:10:45.433Z,99978.05
2023-04-10T22:13:30.297Z,99976.13
2023-04-10T22:16:02.045Z,99974.73
2023-04-10T22:18:31.220Z,99974.02
2023-04-10T22:21:02.015Z,99968.86
2023-04-10T22:23:31.212Z,99967.30
2023-04-10T22:26:02.074Z,99965.17
2023-04-10T22:28:30.009Z,99963.42
2023-04-10T22:30:58.299Z,99960.63
2023-04-10T22:33:26.842Z,99961.27
2023-04-10T22:35:55.007Z,99962.08
2023-04-10T22:38:23.254Z,99959.98
2023-04-10T22:40:52.641Z,99955.83
2023-04-10T22:43:20.472Z,99957.83
2023-04-10T22:45:48.347Z,99953.16
2023-04-10T22:48:16.285Z,99953.48
2023-04-10T22:50:45.364Z,99949.17
2023-04-10T22:53:15.665Z,99949.45
2023-04-10T22:55:43.935Z,99946.50
2023-04-10T22:58:11.940Z,99944.88
2023-04-10T23:00:39.971Z,99943.29
2023-04-10T23:03:08.355Z,99939.80
2023-04-10T23:05:38.879Z,99944.22
2023-04-10T23:08:07.995Z,99939.54
2023-04-10T23:10:35.975Z,99935.77
2023-04-10T23:13:04.472Z,99932.29
2023-04-10T23:15:32.635Z,99927.08
2023-04-10T23:18:00.562Z,99926.88
2023-04-10T23:20:28.805Z,99926.52
2023-04-10T23:22:57.229Z,99924.40
2023-04-10T23:25:25.228Z,99922.49
2023-04-10T23:27:57.964Z,99919.23
2023-04-10T23:30:27.916Z,99919.25
2023-04-10T23:32:56.228Z,99917.70
2023-04-10T23:35:26.655Z,99918.69
2023-04-10T23:37:55.626Z,99912.80
2023-04-10T23:40:23.884Z,99912.98
2023-04-10T23:42:52.229Z,99908.34
2023-04-10T23:45:20.521Z,99904.69
2023-04-10T23:47:50.733Z,99894.58
2023-04-10T23:50:19.095Z,99890.98
2023-04-10T23:52:50.561Z,99890.14
2023-04-10T23:55:19.456Z,99888.22
2023-04-10T23:57:47.466Z,99890.95
